Time;durP1;ratioP1;P1;durP2;ratioP2;P2;SDS_P1;SDS_P2;PMS_P1;PMS_P2;Temp;Humidity;BMP_temperature;BMP_pressure;BME280_temperature;BME280_humidity;BME280_pressure;Samples;Min_cycle;Max_cycle;Signal;HPM_P1;HPM_P2
2021/09/15 00:01:14;;;;;;;;;6.25;6.00;;;;;23.96;63.62;100310.97;5076702;27;45672;-81
2021/09/15 00:07:01;;;;;;;;;6.00;5.75;;;;;23.91;64.02;100302.72;5075911;28;45553;-82
2021/09/15 00:09:27;;;;;;;;;5.25;5.00;;;;;23.83;64.15;100285.00;5076106;28;45675;-82
2021/09/15 00:11:52;;;;;;;;;5.75;5.00;;;;;23.92;63.80;100295.50;5076092;27;45683;-81
2021/09/15 00:14:17;;;;;;;;;8.50;6.25;;;;;23.82;63.74;100286.03;5076068;27;45638;-83
2021/09/15 00:16:43;;;;;;;;;6.00;5.25;;;;;23.67;63.67;100257.78;5076086;27;45575;-81
2021/09/15 00:19:08;;;;;;;;;6.00;5.00;;;;;23.85;63.78;100279.44;5075174;28;45962;-80
2021/09/15 00:21:33;;;;;;;;;6.25;5.00;;;;;23.78;64.04;100279.44;5076117;27;45570;-82
2021/09/15 00:23:59;;;;;;;;;4.50;4.00;;;;;23.74;63.50;100275.53;5076232;27;45772;-82
2021/09/15 00:26:24;;;;;;;;;6.25;5.25;;;;;23.74;63.61;100280.88;5075946;27;45493;-80
2021/09/15 00:28:50;;;;;;;;;6.25;6.00;;;;;23.80;63.94;100276.56;5075932;27;46280;-80
2021/09/15 00:31:15;;;;;;;;;6.50;5.75;;;;;23.76;64.06;100281.47;5075762;27;45534;-79
2021/09/15 00:37:04;;;;;;;;;6.00;5.00;;;;;23.77;63.55;100276.94;5061888;28;45673;-81
2021/09/15 00:39:29;;;;;;;;;5.00;5.00;;;;;23.75;64.12;100273.66;5073918;28;46374;-79
2021/09/15 00:41:54;;;;;;;;;6.25;6.00;;;;;23.65;64.04;100252.63;5076160;27;45632;-79
2021/09/15 00:44:20;;;;;;;;;6.50;5.50;;;;;23.71;64.07;100269.72;5075939;27;45525;-82
2021/09/15 00:46:45;;;;;;;;;5.75;5.00;;;;;23.62;63.68;100250.38;5075425;27;46556;-79
2021/09/15 00:52:32;;;;;;;;;6.25;5.25;;;;;23.57;63.49;100254.69;5077806;28;45628;-81
2021/09/15 00:54:58;;;;;;;;;5.25;5.25;;;;;23.64;63.64;100261.72;5079326;27;45542;-80
2021/09/15 00:57:24;;;;;;;;;4.00;4.00;;;;;23.62;63.91;100261.06;5077573;27;46422;-80
2021/09/15 00:59:49;;;;;;;;;3.00;3.00;;;;;23.63;64.08;100264.59;5077911;27;46319;-80
2021/09/15 01:02:14;;;;;;;;;6.50;4.75;;;;;23.62;63.77;100269.09;5075176;27;45564;-81
2021/09/15 01:04:45;;;;;;;;;4.25;4.00;;;;;23.57;63.59;100257.38;5075480;27;45631;-80
2021/09/15 01:07:12;;;;;;;;;5.00;4.25;;;;;23.41;64.30;100245.16;5073771;28;47622;-81
2021/09/15 01:09:38;;;;;;;;;5.75;5.00;;;;;23.46;63.65;100247.25;5075353;27;45672;-83
2021/09/15 01:12:09;;;;;;;;;5.50;5.00;;;;;23.51;64.04;100260.84;5075425;27;45592;-79
2021/09/15 01:14:36;;;;;;;;;4.75;3.50;;;;;23.55;63.98;100276.28;5075319;27;45671;-82
2021/09/15 01:17:02;;;;;;;;;3.25;3.00;;;;;23.46;64.17;100265.97;5074924;28;46954;-81
2021/09/15 01:22:49;;;;;;;;;3.75;3.75;;;;;23.51;64.24;100267.00;5074985;28;45955;-81
2021/09/15 01:25:17;;;;;;;;;4.75;4.25;;;;;23.37;63.80;100242.03;5075177;27;45628;-80
2021/09/15 01:27:42;;;;;;;;;5.00;5.00;;;;;23.44;63.72;100250.09;5075352;28;46756;-81
2021/09/15 01:30:09;;;;;;;;;4.00;4.00;;;;;23.48;64.05;100263.94;5074761;27;46537;-80
2021/09/15 01:32:35;;;;;;;;;5.00;5.00;;;;;23.39;63.84;100237.31;5074869;27;45564;-81
2021/09/15 01:35:00;;;;;;;;;4.50;4.25;;;;;23.46;64.09;100261.44;5075370;27;45700;-79
2021/09/15 01:37:26;;;;;;;;;5.00;5.00;;;;;23.41;63.98;100258.53;5074569;27;46354;-78
2021/09/15 01:39:51;;;;;;;;;5.00;4.75;;;;;23.34;64.02;100261.16;5074808;27;46163;-80
2021/09/15 01:42:16;;;;;;;;;8.00;6.00;;;;;23.40;64.32;100260.38;5075140;27;45648;-80
2021/09/15 01:44:45;;;;;;;;;5.00;5.00;;;;;23.38;64.29;100256.22;5075040;27;45778;-80
2021/09/15 01:47:13;;;;;;;;;6.00;5.00;;;;;23.37;63.57;100254.59;5075292;27;46417;-83
2021/09/15 01:52:59;;;;;;;;;6.00;6.00;;;;;23.28;63.75;100243.25;5075237;28;45880;-80
2021/09/15 01:55:28;;;;;;;;;6.00;5.00;;;;;23.26;63.80;100248.00;5075224;27;45605;-81
2021/09/15 01:57:54;;;;;;;;;6.00;4.50;;;;;23.32;63.98;100265.06;5074740;27;46542;-81
2021/09/15 02:00:19;;;;;;;;;5.00;4.00;;;;;23.30;64.23;100251.91;5074436;27;45617;-83
2021/09/15 02:02:50;;;;;;;;;5.50;5.00;;;;;23.24;64.45;100243.84;5074958;27;45503;-83
2021/09/15 02:05:17;;;;;;;;;5.00;5.00;;;;;23.07;64.20;100227.34;5074754;28;45663;-81
2021/09/15 02:07:42;;;;;;;;;5.75;5.00;;;;;23.30;63.79;100272.47;5074395;27;46646;-79
2021/09/15 02:10:10;;;;;;;;;5.00;5.00;;;;;23.30;64.50;100275.97;5074083;27;45761;-82
2021/09/15 02:12:36;;;;;;;;;4.50;4.50;;;;;23.14;64.24;100246.06;5074476;27;45612;-81
2021/09/15 02:15:02;;;;;;;;;5.25;5.00;;;;;23.12;64.06;100242.75;5074456;27;45633;-81
2021/09/15 02:17:29;;;;;;;;;3.50;3.00;;;;;23.26;64.13;100269.38;5074499;27;46105;-83
2021/09/15 02:23:17;;;;;;;;;7.00;6.00;;;;;23.27;64.39;100284.38;5074295;28;45693;-84
2021/09/15 02:25:42;;;;;;;;;5.50;5.25;;;;;23.07;64.15;100247.88;5075207;28;45522;-81
2021/09/15 02:28:07;;;;;;;;;5.50;5.00;;;;;23.25;64.46;100278.41;5079028;27;45674;-81
2021/09/15 02:30:33;;;;;;;;;6.25;6.00;;;;;23.14;64.68;100248.75;5078334;27;45483;-80
2021/09/15 02:32:58;;;;;;;;;4.75;4.75;;;;;23.16;64.42;100252.84;5076380;27;45631;-80
2021/09/15 02:38:46;;;;;;;;;4.75;4.75;;;;;23.21;64.60;100277.13;5062172;28;46073;-80
2021/09/15 02:41:11;;;;;;;;;6.00;5.75;;;;;23.20;64.44;100272.84;5073956;27;45426;-82
2021/09/15 02:43:36;;;;;;;;;6.25;6.00;;;;;23.20;64.66;100277.34;5076584;27;45675;-80
2021/09/15 02:46:02;;;;;;;;;6.00;5.00;;;;;23.19;64.99;100278.38;5077581;27;45652;-81
2021/09/15 02:48:28;;;;;;;;;5.25;4.75;;;;;22.97;64.22;100254.44;5077199;27;45912;-81
2021/09/15 02:50:53;;;;;;;;;5.00;5.00;;;;;23.19;64.84;100295.25;5077209;28;45535;-81
2021/09/15 02:53:19;;;;;;;;;7.00;6.75;;;;;23.20;64.53;100290.72;5077337;27;45515;-81
2021/09/15 02:55:44;;;;;;;;;7.00;6.25;;;;;23.07;64.48;100270.09;5077626;27;45481;-81
2021/09/15 02:58:09;;;;;;;;;7.00;5.50;;;;;23.21;64.65;100297.72;5077217;27;45841;-81
2021/09/15 03:00:35;;;;;;;;;5.00;5.00;;;;;23.20;64.59;100286.22;5077317;27;46332;-81
2021/09/15 03:03:02;;;;;;;;;7.00;5.50;;;;;23.22;64.37;100296.69;5077607;27;45640;-80
2021/09/15 03:08:49;;;;;;;;;5.50;5.25;;;;;23.13;64.76;100268.47;5077130;28;45990;-82
2021/09/15 03:11:14;;;;;;;;;5.75;5.00;;;;;22.99;64.43;100246.22;5077261;28;45765;-81
2021/09/15 03:13:39;;;;;;;;;6.50;6.00;;;;;22.96;64.89;100239.41;5077113;27;45638;-79
2021/09/15 03:16:05;;;;;;;;;7.00;7.00;;;;;23.01;64.53;100246.81;5077633;27;45680;-79
2021/09/15 03:18:30;;;;;;;;;6.75;6.75;;;;;23.20;64.60;100274.69;5076860;27;46655;-79
2021/09/15 03:20:55;;;;;;;;;6.00;5.75;;;;;23.18;64.87;100274.88;5076905;27;45974;-81
2021/09/15 03:23:21;;;;;;;;;8.75;5.75;;;;;23.13;64.87;100265.81;5077252;27;45602;-78
2021/09/15 03:25:46;;;;;;;;;5.25;5.00;;;;;23.18;64.48;100272.19;5077161;27;45734;-79
2021/09/15 03:28:12;;;;;;;;;5.25;5.25;;;;;23.08;65.27;100260.22;5076721;27;46613;-80
2021/09/15 03:30:37;;;;;;;;;6.00;5.50;;;;;23.18;65.08;100274.03;5076940;27;46005;-81
2021/09/15 03:33:02;;;;;;;;;30.50;29.25;;;;;23.18;64.53;100268.69;5076927;27;45727;-80
2021/09/15 03:38:49;;;;;;;;;9.75;9.75;;;;;23.09;65.18;100269.91;5075054;28;45811;-80
2021/09/15 03:41:15;;;;;;;;;7.25;7.00;;;;;23.15;65.27;100279.81;5076593;27;45726;-81
2021/09/15 03:43:40;;;;;;;;;9.00;7.00;;;;;23.09;65.27;100276.06;5076901;27;45740;-81
2021/09/15 03:46:06;;;;;;;;;11.00;9.50;;;;;23.13;65.21;100285.34;5092419;27;45912;-81
2021/09/15 03:48:31;;;;;;;;;10.00;8.00;;;;;23.07;65.46;100272.75;5076420;28;45660;-81
2021/09/15 03:54:18;;;;;;;;;6.75;6.50;;;;;23.10;64.93;100291.09;5075042;28;45589;-81
2021/09/15 03:56:44;;;;;;;;;11.00;10.00;;;;;23.05;65.38;100282.81;5076797;27;45614;-80
2021/09/15 03:59:10;;;;;;;;;7.25;7.00;;;;;22.78;64.64;100244.44;5076519;27;46418;-81
2021/09/15 04:01:35;;;;;;;;;27.00;26.75;;;;;23.05;65.17;100288.16;5078098;27;45983;-80
2021/09/15 04:04:01;;;;;;;;;10.50;10.25;;;;;22.99;65.16;100280.97;5078366;27;45668;-80
2021/09/15 04:06:26;;;;;;;;;6.00;6.00;;;;;23.02;65.56;100277.88;5078463;28;45710;-82
2021/09/15 04:08:52;;;;;;;;;5.00;4.50;;;;;23.08;65.08;100293.13;5077012;27;45518;-80
2021/09/15 04:11:18;;;;;;;;;6.00;6.00;;;;;23.05;65.18;100279.34;5076360;28;45684;-82
2021/09/15 04:13:44;;;;;;;;;7.00;6.75;;;;;22.88;65.50;100262.81;5076291;27;45722;-80
2021/09/15 04:16:09;;;;;;;;;9.75;8.50;;;;;22.93;64.96;100271.06;5076765;27;45541;-80
2021/09/15 04:18:34;;;;;;;;;6.00;6.00;;;;;23.05;65.36;100288.16;5077001;27;46393;-82
2021/09/15 04:32:33;;;;;;;;;8.00;6.75;;;;;23.01;65.18;100294.94;5075867;28;45953;-80
2021/09/15 04:34:58;;;;;;;;;5.25;5.25;;;;;22.94;65.31;100291.41;5076050;27;45557;-80
2021/09/15 04:37:24;;;;;;;;;7.50;7.50;;;;;22.90;65.60;100280.28;5076156;27;45452;-80
2021/09/15 04:39:49;;;;;;;;;9.00;7.75;;;;;22.99;65.56;100289.81;5075339;27;46466;-79
2021/09/15 04:42:14;;;;;;;;;9.25;8.75;;;;;22.99;64.94;100297.00;5075587;27;45614;-80
2021/09/15 04:44:40;;;;;;;;;8.00;6.50;;;;;22.98;65.18;100285.47;5075850;27;45634;-79
2021/09/15 04:47:05;;;;;;;;;5.25;5.25;;;;;22.96;65.37;100282.16;5076113;27;45767;-80
2021/09/15 04:49:30;;;;;;;;;7.00;7.00;;;;;22.94;65.76;100281.53;5075290;27;45570;-80
2021/09/15 04:51:56;;;;;;;;;7.75;6.75;;;;;22.90;65.75;100276.78;5075420;27;47449;-79
2021/09/15 04:54:22;;;;;;;;;9.00;8.00;;;;;22.76;65.60;100251.84;5075591;27;45615;-78
2021/09/15 04:56:47;;;;;;;;;7.00;7.00;;;;;22.89;65.34;100273.28;5075808;27;45685;-79
2021/09/15 04:59:13;;;;;;;;;7.00;6.00;;;;;22.96;65.34;100289.34;5075101;27;45595;-79
2021/09/15 05:01:38;;;;;;;;;8.00;7.50;;;;;22.96;65.27;100290.19;5075499;27;46050;-79
2021/09/15 05:04:04;;;;;;;;;6.50;6.50;;;;;22.95;65.28;100288.53;5075405;27;45549;-78
2021/09/15 05:09:51;;;;;;;;;7.25;7.00;;;;;22.87;65.54;100286.03;5074688;28;45608;-80
2021/09/15 05:12:16;;;;;;;;;8.00;8.00;;;;;22.84;65.96;100283.72;5075061;27;46103;-80
2021/09/15 05:14:45;;;;;;;;;7.50;6.25;;;;;22.80;65.94;100281.66;5075086;27;45756;-87
2021/09/15 05:17:10;;;;;;;;;7.25;7.25;;;;;22.81;65.32;100288.66;5074765;28;45560;-86
2021/09/15 05:19:42;;;;;;;;;6.75;6.25;;;;;22.66;65.61;100262.03;5091290;27;47566;-87
2021/09/15 05:22:08;;;;;;;;;9.75;7.50;;;;;22.55;65.82;100246.56;5075681;27;46145;-86
2021/09/15 05:24:33;;;;;;;;;8.00;7.75;;;;;22.67;65.53;100274.38;5075558;27;45577;-78
2021/09/15 05:26:59;;;;;;;;;8.50;7.50;;;;;22.80;65.71;100290.50;5075507;28;45718;-79
2021/09/15 05:29:24;;;;;;;;;10.75;8.25;;;;;22.86;65.49;100303.06;5074735;27;45688;-79
2021/09/15 05:31:50;;;;;;;;;8.00;7.00;;;;;22.86;66.13;100310.25;5075343;27;46139;-81
2021/09/15 05:34:15;;;;;;;;;9.00;8.00;;;;;22.75;65.50;100297.44;5074085;28;45652;-83
2021/09/15 05:40:03;;;;;;;;;7.50;7.50;;;;;22.81;66.28;100313.53;5065891;28;45672;-80
2021/09/15 05:42:28;;;;;;;;;9.75;8.25;;;;;22.68;66.20;100299.22;5077789;27;46183;-81
2021/09/15 05:44:54;;;;;;;;;9.25;9.00;;;;;22.70;66.46;100303.34;5077351;28;45576;-82
2021/09/15 05:47:20;;;;;;;;;11.50;9.00;;;;;22.75;66.37;100321.50;5075964;28;45568;-81
2021/09/15 05:49:45;;;;;;;;;9.00;9.00;;;;;22.75;65.93;100322.31;5074834;27;45557;-80
2021/09/15 05:55:32;;;;;;;;;10.25;8.50;;;;;22.71;66.43;100318.41;5074377;28;45845;-83
2021/09/15 05:57:58;;;;;;;;;9.50;9.00;;;;;22.70;66.09;100313.22;5075049;27;45738;-83
2021/09/15 06:00:23;;;;;;;;;8.25;8.25;;;;;22.71;66.17;100323.75;5074502;27;45700;-83
2021/09/15 06:02:49;;;;;;;;;7.75;7.75;;;;;22.70;66.08;100322.03;5074638;28;45871;-84
2021/09/15 06:05:14;;;;;;;;;54.00;41.25;;;;;22.59;66.21;100303.88;5073401;28;45667;-86
2021/09/15 06:07:40;;;;;;;;;9.25;8.25;;;;;22.68;66.10;100324.06;5073239;27;45804;-83
2021/09/15 06:10:06;;;;;;;;;13.25;11.75;;;;;22.75;66.11;100332.19;5074047;27;45578;-81
2021/09/15 06:12:31;;;;;;;;;27.00;24.00;;;;;22.72;66.17;100329.91;5074439;27;45436;-81
2021/09/15 06:14:56;;;;;;;;;11.75;11.00;;;;;22.70;66.64;100327.38;5074623;27;45628;-81
2021/09/15 06:17:22;;;;;;;;;15.00;11.50;;;;;22.70;66.46;100337.25;5075399;27;45527;-83
2021/09/15 06:19:47;;;;;;;;;10.75;8.00;;;;;22.72;66.91;100332.56;5077699;27;46830;-80
2021/09/15 06:25:36;;;;;;;;;12.00;11.00;;;;;22.77;66.47;100341.66;5077793;28;45659;-81
2021/09/15 06:28:01;;;;;;;;;11.75;11.00;;;;;22.76;66.79;100340.00;5078219;27;45763;-81
2021/09/15 06:30:26;;;;;;;;;11.25;10.50;;;;;22.76;66.90;100341.84;5077845;27;45490;-78
2021/09/15 06:32:52;;;;;;;;;11.25;10.25;;;;;22.72;66.35;100329.91;5077778;27;45625;-77
2021/09/15 06:35:17;;;;;;;;;14.50;12.25;;;;;22.74;66.46;100339.34;5077815;27;45553;-77
2021/09/15 06:41:05;;;;;;;;;13.50;11.00;;;;;22.77;66.40;100344.34;5066749;28;45822;-77
2021/09/15 06:43:30;;;;;;;;;11.00;10.00;;;;;22.76;66.66;100348.03;5077587;28;46161;-77
2021/09/15 06:45:55;;;;;;;;;12.75;10.75;;;;;22.72;67.00;100340.59;5077725;27;45646;-78
2021/09/15 06:48:21;;;;;;;;;10.75;10.50;;;;;22.65;67.02;100329.00;5077616;27;45714;-77
2021/09/15 06:50:47;;;;;;;;;10.25;9.50;;;;;22.69;66.86;100335.59;5077417;27;46130;-80
2021/09/15 06:53:12;;;;;;;;;12.75;11.25;;;;;22.82;66.51;100352.59;5077342;28;46154;-77
2021/09/15 06:55:38;;;;;;;;;13.00;11.00;;;;;22.84;66.97;100349.69;5077127;27;45675;-77
2021/09/15 06:58:03;;;;;;;;;11.25;10.00;;;;;22.85;66.70;100359.38;5077384;27;45680;-78
2021/09/15 07:00:29;;;;;;;;;11.75;9.75;;;;;22.79;66.82;100341.44;5076540;27;46501;-78
2021/09/15 07:02:55;;;;;;;;;9.75;9.25;;;;;22.88;66.41;100353.66;5076390;27;45592;-76
2021/09/15 07:05:20;;;;;;;;;14.00;13.25;;;;;22.89;66.54;100363.28;5076728;27;45751;-78
2021/09/15 07:11:08;;;;;;;;;11.00;10.00;;;;;22.87;67.12;100357.34;5076191;28;46190;-77
2021/09/15 07:13:33;;;;;;;;;13.75;11.50;;;;;22.86;66.77;100355.69;5075338;28;46006;-77
2021/09/15 07:15:58;;;;;;;;;13.50;11.75;;;;;22.91;66.59;100371.97;5075955;27;45565;-77
2021/09/15 07:18:28;;;;;;;;;9.00;9.00;;;;;22.91;67.20;100369.28;5075615;27;45489;-77
2021/09/15 07:20:53;;;;;;;;;12.75;11.00;;;;;22.91;66.95;100372.78;5076282;27;47265;-76
2021/09/15 07:23:19;;;;;;;;;12.00;11.00;;;;;22.91;66.77;100380.81;5076493;28;45588;-76
2021/09/15 07:25:44;;;;;;;;;11.25;10.50;;;;;22.90;67.05;100379.16;5076127;27;45708;-77
2021/09/15 07:28:09;;;;;;;;;11.50;10.50;;;;;22.91;66.97;100378.13;5075816;27;45646;-77
2021/09/15 07:30:35;;;;;;;;;13.25;12.25;;;;;22.90;67.12;100373.81;5075782;27;47678;-76
2021/09/15 07:33:00;;;;;;;;;13.50;11.75;;;;;22.91;66.72;100379.97;5075931;27;45918;-76
2021/09/15 07:35:26;;;;;;;;;10.00;9.75;;;;;22.92;67.02;100386.97;5075559;27;45796;-76
2021/09/15 07:41:13;;;;;;;;;12.25;11.25;;;;;22.89;66.71;100385.50;5073967;28;45670;-77
2021/09/15 07:43:38;;;;;;;;;13.50;12.50;;;;;22.81;66.60;100369.63;5075198;27;47187;-77
2021/09/15 07:46:03;;;;;;;;;13.75;12.25;;;;;22.85;66.85;100376.22;5075384;27;45646;-76
2021/09/15 07:48:29;;;;;;;;;14.25;12.00;;;;;22.89;67.37;100379.31;5075528;27;45602;-76
2021/09/15 07:50:55;;;;;;;;;12.50;11.00;;;;;22.87;66.72;100382.22;5075276;27;45524;-77
2021/09/15 07:56:42;;;;;;;;;10.75;10.25;;;;;22.87;67.01;100382.22;5075857;28;45668;-76
2021/09/15 07:59:08;;;;;;;;;13.50;13.00;;;;;22.87;67.22;100381.38;5075779;27;45624;-76
2021/09/15 08:01:33;;;;;;;;;13.00;12.00;;;;;22.87;66.78;100390.22;5075513;27;46308;-76
2021/09/15 08:03:58;;;;;;;;;21.75;19.00;;;;;22.87;66.91;100390.22;5075609;27;45639;-76
2021/09/15 08:06:24;;;;;;;;;11.75;11.25;;;;;22.85;66.62;100381.56;5075822;27;45616;-75
2021/09/15 08:08:49;;;;;;;;;10.50;9.00;;;;;22.87;66.73;100389.41;5075510;27;45874;-76
2021/09/15 08:11:15;;;;;;;;;13.00;11.50;;;;;22.84;66.79;100393.28;5075225;27;45784;-76
2021/09/15 08:13:40;;;;;;;;;11.75;10.00;;;;;22.85;67.50;100400.28;5075768;27;46223;-74
2021/09/15 08:16:07;;;;;;;;;11.00;10.00;;;;;22.86;66.94;100401.09;5075126;27;45687;-76
2021/09/15 08:18:32;;;;;;;;;10.00;9.00;;;;;22.81;67.32;100387.50;5075517;27;45715;-74
2021/09/15 08:20:58;;;;;;;;;9.75;9.00;;;;;22.84;66.94;100398.63;5075016;27;47255;-76
2021/09/15 08:26:46;;;;;;;;;8.00;7.75;;;;;22.79;67.67;100402.88;5074866;28;45683;-77
2021/09/15 08:29:12;;;;;;;;;8.00;7.00;;;;;22.76;67.09;100403.28;5075433;27;45668;-77
2021/09/15 08:31:38;;;;;;;;;7.00;6.00;;;;;22.75;67.53;100405.13;5074373;27;47282;-75
2021/09/15 08:34:03;;;;;;;;;6.00;5.00;;;;;22.77;67.07;100407.63;5075189;27;45979;-75
2021/09/15 08:36:29;;;;;;;;;6.25;6.25;;;;;22.78;67.68;100414.63;5074691;27;45545;-76
2021/09/15 08:42:16;;;;;;;;;7.75;7.00;;;;;22.76;67.21;100411.31;5063817;28;45766;-75
2021/09/15 08:44:41;;;;;;;;;7.50;7.25;;;;;22.74;67.34;100408.00;5074456;27;46378;-76
2021/09/15 08:47:07;;;;;;;;;8.25;7.50;;;;;22.72;67.30;100407.38;5074653;27;45533;-76
2021/09/15 08:49:34;;;;;;;;;8.00;7.25;;;;;22.74;67.88;100411.50;5074796;27;45560;-75
2021/09/15 08:52:00;;;;;;;;;8.25;7.25;;;;;22.74;67.93;100413.31;5074755;27;47037;-74
2021/09/15 08:54:25;;;;;;;;;9.50;8.00;;;;;22.70;67.53;100420.88;5074381;27;45724;-77
2021/09/15 08:56:51;;;;;;;;;8.50;8.50;;;;;22.73;67.79;100423.19;5074830;27;45703;-75
2021/09/15 08:59:17;;;;;;;;;9.00;8.00;;;;;22.74;68.09;100419.50;5075088;27;45635;-78
2021/09/15 09:01:45;;;;;;;;;9.25;9.00;;;;;22.76;68.01;100432.69;5075088;27;48713;-76
2021/09/15 09:04:15;;;;;;;;;10.25;7.25;;;;;22.77;68.23;100431.66;5074871;27;46593;-76
2021/09/15 09:06:41;;;;;;;;;11.25;10.00;;;;;22.75;67.79;100429.16;5074655;27;45657;-76
2021/09/15 09:12:31;;;;;;;;;3.50;3.50;;;;;22.74;67.96;100429.34;5074590;28;46045;-75
2021/09/15 09:15:17;;;;;;;;;5.50;5.00;;;;;22.76;67.99;100430.84;5074302;27;46185;-77
2021/09/15 09:17:43;;;;;;;;;5.75;5.00;;;;;22.75;68.55;100428.34;5074501;27;45604;-76
2021/09/15 09:20:16;;;;;;;;;5.75;5.00;;;;;22.77;68.01;100426.31;5074702;27;45579;-77
2021/09/15 09:23:05;;;;;;;;;7.25;4.25;;;;;22.76;68.02;100424.66;5074544;27;46355;-77
2021/09/15 09:25:44;;;;;;;;;4.00;4.00;;;;;22.79;68.07;100429.59;5074466;28;46601;-75
2021/09/15 09:28:15;;;;;;;;;7.00;7.00;;;;;22.81;68.40;100425.75;5074418;28;45596;-75
2021/09/15 09:30:42;;;;;;;;;6.25;6.00;;;;;22.82;68.47;100426.56;5074367;27;45627;-77
2021/09/15 09:33:08;;;;;;;;;9.00;7.00;;;;;22.82;68.15;100438.09;5074083;27;46294;-76
2021/09/15 09:35:43;;;;;;;;;7.00;6.00;;;;;22.85;68.07;100437.69;5074409;27;46204;-77
2021/09/15 09:38:20;;;;;;;;;10.75;8.00;;;;;22.84;68.18;100443.22;5073631;27;45522;-78
2021/09/15 09:41:11;;;;;;;;;8.00;8.00;;;;;22.85;68.83;100444.88;5073719;27;45942;-77
2021/09/15 09:43:54;;;;;;;;;6.75;6.25;;;;;22.85;68.15;100448.38;5073953;27;47452;-77
2021/09/15 09:46:29;;;;;;;;;7.00;7.00;;;;;22.83;68.63;100438.91;5074040;27;46206;-78
2021/09/15 09:48:55;;;;;;;;;7.50;6.00;;;;;22.88;68.89;100441.84;5073930;27;45551;-78
2021/09/15 09:51:34;;;;;;;;;8.00;7.00;;;;;22.89;68.56;100435.44;5074434;27;45507;-76
2021/09/15 09:54:26;;;;;;;;;7.00;7.00;;;;;22.85;68.12;100434.19;5074295;27;45540;-76
2021/09/15 09:56:54;;;;;;;;;6.50;6.00;;;;;22.85;68.47;100420.81;5074094;27;47060;-75
2021/09/15 09:59:25;;;;;;;;;8.00;6.50;;;;;22.95;68.71;100438.19;5073904;27;45649;-76
2021/09/15 10:01:56;;;;;;;;;6.75;6.50;;;;;22.97;68.74;100444.16;5074345;27;45486;-77
2021/09/15 10:04:22;;;;;;;;;6.75;6.00;;;;;22.95;68.70;100438.19;5074137;27;45676;-78
2021/09/15 10:06:48;;;;;;;;;6.00;5.00;;;;;22.91;68.38;100439.59;5074245;27;46570;-77
2021/09/15 10:09:14;;;;;;;;;5.00;5.00;;;;;22.86;68.66;100452.69;5073826;27;45690;-76
2021/09/15 10:11:42;;;;;;;;;7.75;6.50;;;;;22.78;68.81;100442.13;5074066;28;45612;-77
2021/09/15 10:14:14;;;;;;;;;7.75;7.00;;;;;22.71;69.42;100446.63;5073857;27;46678;-77
2021/09/15 10:17:16;;;;;;;;;4.00;4.00;;;;;22.63;69.94;100449.38;5073836;27;46287;-77
2021/09/15 10:19:46;;;;;;;;;4.00;3.75;;;;;22.44;70.02;100424.13;5072851;27;45924;-77
2021/09/15 10:22:12;;;;;;;;;7.00;6.25;;;;;22.50;70.59;100438.56;5074061;27;45462;-76
2021/09/15 10:25:00;;;;;;;;;8.75;8.25;;;;;22.49;70.06;100443.09;5073584;27;46297;-76
2021/09/15 10:27:28;;;;;;;;;10.00;8.00;;;;;22.49;70.59;100443.09;5073933;27;46405;-77
2021/09/15 10:30:00;;;;;;;;;10.50;9.00;;;;;22.51;70.06;100435.69;5073606;27;45715;-76
2021/09/15 10:32:36;;;;;;;;;11.50;10.50;;;;;22.53;70.66;100439.00;5073960;28;45588;-77
2021/09/15 10:35:05;;;;;;;;;10.75;10.00;;;;;22.55;69.91;100436.97;5073629;28;48500;-77
2021/09/15 10:37:30;;;;;;;;;15.25;13.00;;;;;22.58;70.11;100439.25;5073756;27;47087;-77
2021/09/15 10:40:09;;;;;;;;;9.50;8.25;;;;;22.59;70.04;100438.25;5073751;28;45616;-75
2021/09/15 10:42:39;;;;;;;;;14.25;12.00;;;;;22.59;70.06;100443.59;5073683;27;45561;-77
2021/09/15 10:45:14;;;;;;;;;12.50;12.00;;;;;22.59;70.12;100440.91;5074000;27;47026;-77
2021/09/15 10:47:40;;;;;;;;;12.00;11.75;;;;;22.57;70.14;100440.28;5073957;27;45966;-78
2021/09/15 10:50:07;;;;;;;;;15.25;14.25;;;;;22.58;70.20;100441.94;5073827;27;46008;-77
2021/09/15 10:52:40;;;;;;;;;12.50;11.50;;;;;22.59;70.50;100440.91;5074052;27;45748;-77
2021/09/15 10:55:17;;;;;;;;;12.25;11.50;;;;;22.59;70.86;100440.91;5073287;27;46640;-77
2021/09/15 10:57:44;;;;;;;;;7.50;7.50;;;;;22.59;70.58;100443.59;5073580;27;47209;-77
2021/09/15 11:00:15;;;;;;;;;12.75;10.00;;;;;22.64;70.04;100444.84;5073343;27;45582;-76
2021/09/15 11:02:42;;;;;;;;;8.00;8.00;;;;;22.65;69.89;100447.34;5073510;27;45644;-77
2021/09/15 11:05:41;;;;;;;;;12.50;11.75;;;;;22.69;69.93;100447.78;5077031;27;46886;-76
2021/09/15 11:11:28;;;;;;;;;11.00;10.50;;;;;22.73;70.52;100444.56;5076871;28;45624;-77
2021/09/15 11:13:59;;;;;;;;;9.25;9.25;;;;;22.76;69.80;100446.03;5076941;27;45925;-77
2021/09/15 11:16:35;;;;;;;;;10.25;10.00;;;;;22.78;70.36;100441.34;5076869;27;46544;-77
2021/09/15 11:19:09;;;;;;;;;12.50;10.75;;;;;22.78;70.16;100441.34;5076666;27;46168;-77
2021/09/15 11:21:43;;;;;;;;;12.25;10.25;;;;;22.89;70.05;100448.81;5076815;27;45673;-78
2021/09/15 11:27:30;;;;;;;;;11.00;10.00;;;;;23.01;70.20;100441.91;5076870;28;45776;-76
2021/09/15 11:29:55;;;;;;;;;10.50;10.50;;;;;23.07;69.89;100441.16;5076792;27;45735;-78
2021/09/15 11:32:23;;;;;;;;;12.00;11.50;;;;;23.14;69.32;100451.91;5076780;27;45623;-75
2021/09/15 11:34:52;;;;;;;;;10.75;10.00;;;;;23.17;69.53;100440.81;5076309;27;46019;-77
2021/09/15 11:37:29;;;;;;;;;11.75;10.00;;;;;23.25;69.38;100443.34;5075894;27;47721;-77
2021/09/15 11:43:20;;;;;;;;;9.25;9.25;;;;;23.34;69.34;100445.66;5067594;28;45823;-77
2021/09/15 11:45:48;;;;;;;;;10.50;10.25;;;;;23.39;69.22;100461.13;5076366;27;45619;-77
2021/09/15 11:48:26;;;;;;;;;10.25;9.50;;;;;23.41;69.08;100456.41;5075949;27;47595;-77
2021/09/15 11:50:52;;;;;;;;;10.50;10.00;;;;;23.38;69.13;100446.91;5074609;28;46382;-76
2021/09/15 11:53:19;;;;;;;;;10.25;9.25;;;;;23.43;69.13;100463.19;5076088;27;45538;-76
2021/09/15 11:59:06;;;;;;;;;12.00;11.50;;;;;23.48;68.87;100454.66;5075691;28;46049;-75
2021/09/15 12:01:35;;;;;;;;;14.50;13.25;;;;;23.48;68.76;100456.50;5075678;27;47038;-76
2021/09/15 12:04:05;;;;;;;;;9.75;9.50;;;;;23.51;68.85;100450.72;5075961;27;45911;-76
2021/09/15 12:06:32;;;;;;;;;9.00;8.25;;;;;23.58;68.77;100456.97;5075978;27;45596;-75
2021/09/15 12:08:58;;;;;;;;;9.75;9.00;;;;;23.60;68.41;100458.41;5076025;27;46457;-75
2021/09/15 12:11:29;;;;;;;;;9.25;7.75;;;;;23.60;68.45;100474.44;5075700;27;46244;-77
2021/09/15 12:13:58;;;;;;;;;11.00;10.00;;;;;23.61;67.97;100464.56;5076017;28;45547;-76
2021/09/15 12:16:32;;;;;;;;;9.25;9.25;;;;;23.60;67.62;100463.75;5074448;27;45781;-76
2021/09/15 12:18:58;;;;;;;;;12.25;11.50;;;;;23.59;68.17;100462.09;5075459;27;45615;-77
2021/09/15 12:21:24;;;;;;;;;13.25;11.75;;;;;23.56;67.81;100470.53;5075697;27;45984;-77
2021/09/15 12:30:07;;;;;;;;;1.25;0.25;;;;;23.43;68.33;100473.91;5075051;28;45565;-77
2021/09/15 12:32:36;;;;;;;;;13.00;12.00;;;;;23.34;68.25;100471.56;5074760;27;46372;-76
2021/09/15 12:35:06;;;;;;;;;13.00;12.00;;;;;23.35;68.42;100475.91;5074712;27;45757;-74
2021/09/15 12:37:39;;;;;;;;;12.25;11.00;;;;;23.32;68.02;100474.44;5075438;27;45611;-77
2021/09/15 12:40:06;;;;;;;;;9.00;8.50;;;;;23.30;68.91;100471.16;5075092;27;46387;-76
2021/09/15 12:42:37;;;;;;;;;10.25;10.00;;;;;23.29;68.58;100482.84;5075354;27;46386;-77
2021/09/15 12:45:12;;;;;;;;;10.75;10.75;;;;;23.26;68.54;100491.28;5075415;28;45654;-77
2021/09/15 12:47:44;;;;;;;;;10.25;10.25;;;;;23.22;68.74;100489.16;5075135;27;45584;-76
2021/09/15 12:50:18;;;;;;;;;11.50;11.00;;;;;23.14;69.66;100486.66;5075039;27;46353;-75
2021/09/15 12:52:46;;;;;;;;;11.50;9.50;;;;;23.05;71.06;100491.28;5075289;28;46494;-78
2021/09/15 12:55:24;;;;;;;;;10.00;9.25;;;;;22.94;71.77;100487.28;5075227;27;45663;-79
2021/09/15 12:58:09;;;;;;;;;10.25;9.75;;;;;22.85;71.77;100488.44;5075050;27;45566;-76
2021/09/15 13:00:46;;;;;;;;;12.00;10.75;;;;;22.78;72.44;100502.78;5073554;28;46523;-76
2021/09/15 13:03:13;;;;;;;;;16.50;15.25;;;;;22.69;72.65;100495.84;5074648;27;46984;-75